Time;durP1;ratioP1;P1;durP2;ratioP2;P2;SDS_P1;SDS_P2;PMS_P1;PMS_P2;Temp;Humidity;BMP_temperature;BMP_pressure;BME280_temperature;BME280_humidity;BME280_pressure;Samples;Min_cycle;Max_cycle;Signal;HPM_P1;HPM_P2
2023/03/01 00:01:47;;;;;;;121.60;55.70;;;;;;;-4.45;100.00;99187.15;52493;1259;1070891;-77
2023/03/01 00:04:14;;;;;;;120.90;53.40;;;;;;;-4.47;100.00;99188.29;52455;1254;1016064;-76
2023/03/01 00:06:42;;;;;;;125.20;53.60;;;;;;;-4.49;100.00;99189.27;52310;1254;1050404;-76
2023/03/01 00:09:09;;;;;;;128.60;58.80;;;;;;;-4.55;100.00;99197.40;52494;1254;1016378;-76
2023/03/01 00:11:36;;;;;;;139.60;59.60;;;;;;;-4.62;100.00;99196.49;52455;1257;1019810;-77
2023/03/01 00:14:04;;;;;;;133.90;57.00;;;;;;;-4.60;100.00;99194.36;52410;1254;1058627;-76
2023/03/01 00:16:33;;;;;;;122.60;56.60;;;;;;;-4.60;100.00;99189.83;52492;1254;1016560;-76
2023/03/01 00:19:00;;;;;;;;;;;;;;;-4.64;100.00;99191.39;52347;1254;1016342;-76
2023/03/01 00:21:27;;;;;;;123.70;52.40;;;;;;;-4.66;100.00;99193.78;52573;1254;1015746;-76
2023/03/01 00:23:53;;;;;;;131.80;55.20;;;;;;;-4.70;100.00;99194.33;52587;1254;1075448;-76
2023/03/01 00:26:21;;;;;;;139.60;58.60;;;;;;;-4.72;100.00;99193.44;52404;1255;1016184;-77
2023/03/01 00:28:48;;;;;;;124.50;55.10;;;;;;;-4.72;100.00;99192.08;52418;1257;1069698;-76
2023/03/01 00:31:20;;;;;;;128.90;53.60;;;;;;;-4.73;100.00;99189.90;52482;1257;1015840;-77
2023/03/01 00:33:46;;;;;;;106.80;51.40;;;;;;;-4.75;100.00;99185.52;52378;1257;1073357;-76
2023/03/01 00:36:14;;;;;;;137.80;60.40;;;;;;;-4.77;100.00;99181.51;52469;1257;1016081;-76
2023/03/01 00:38:42;;;;;;;126.80;57.50;;;;;;;-4.76;100.00;99183.10;52510;1254;1050680;-76
2023/03/01 00:41:11;;;;;;;131.20;59.20;;;;;;;-4.76;100.00;99187.70;52546;1254;1016108;-77
2023/03/01 00:43:38;;;;;;;136.00;59.50;;;;;;;-4.78;100.00;99186.52;52404;1254;1058619;-77
2023/03/01 00:46:08;;;;;;;134.50;61.00;;;;;;;-4.79;100.00;99184.15;52480;1260;1016710;-76
2023/03/01 00:48:35;;;;;;;131.10;57.10;;;;;;;-4.82;100.00;99182.59;52510;1254;1075002;-76
2023/03/01 00:51:12;;;;;;;125.00;53.10;;;;;;;-4.84;100.00;99176.86;52354;1258;1016385;-76
2023/03/01 00:53:39;;;;;;;116.00;51.90;;;;;;;-4.85;100.00;99173.39;52402;1254;1068975;-77
2023/03/01 00:56:06;;;;;;;103.10;47.10;;;;;;;-4.88;100.00;99174.73;52482;1254;1019059;-76
2023/03/01 00:58:33;;;;;;;110.90;48.00;;;;;;;-4.88;100.00;99172.25;52465;1258;1072712;-76
2023/03/01 01:00:59;;;;;;;100.50;45.20;;;;;;;-4.86;100.00;99173.34;52477;1254;1016280;-76
2023/03/01 01:03:26;;;;;;;113.30;48.20;;;;;;;-4.84;100.00;99174.25;52383;1260;1050977;-76
2023/03/01 01:05:53;;;;;;;116.10;50.10;;;;;;;-4.85;100.00;99173.05;52531;1254;1016299;-77
2023/03/01 01:08:20;;;;;;;117.40;49.20;;;;;;;-4.86;100.00;99173.70;52506;1254;1058526;-77
2023/03/01 01:10:46;;;;;;;121.00;48.50;;;;;;;-4.92;100.00;99167.46;52426;1254;1016357;-77
2023/03/01 01:13:13;;;;;;;114.80;50.80;;;;;;;-4.97;100.00;99169.14;52476;1259;1072799;-77
2023/03/01 01:15:40;;;;;;;123.80;56.50;;;;;;;-5.00;100.00;99172.66;52411;1254;1016368;-77
2023/03/01 01:18:07;;;;;;;126.30;50.00;;;;;;;-5.01;100.00;99184.02;52519;1254;1072191;-77
2023/03/01 01:20:34;;;;;;;125.30;53.60;;;;;;;-5.01;100.00;99180.19;52546;1253;1016445;-77
2023/03/01 01:23:01;;;;;;;120.00;50.80;;;;;;;-5.04;100.00;99181.70;52525;1256;1071159;-76
2023/03/01 01:25:28;;;;;;;115.90;51.20;;;;;;;-5.11;100.00;99176.93;52395;1260;1015778;-76
2023/03/01 01:27:55;;;;;;;116.30;51.40;;;;;;;-5.14;100.00;99166.98;52456;1254;1051389;-76
2023/03/01 01:30:21;;;;;;;136.50;56.60;;;;;;;-5.16;100.00;99166.83;52487;1257;1016459;-76
2023/03/01 01:32:48;;;;;;;120.80;52.50;;;;;;;-5.15;100.00;99162.70;52469;1254;1062771;-76
2023/03/01 01:35:14;;;;;;;121.30;52.40;;;;;;;-5.14;100.00;99163.28;52476;1254;1016409;-76
2023/03/01 01:37:41;;;;;;;119.20;55.30;;;;;;;-5.16;100.00;99165.74;52424;1259;1076360;-76
2023/03/01 01:40:09;;;;;;;97.50;41.30;;;;;;;-5.16;100.00;99165.25;52455;1254;1015618;-77
2023/03/01 01:42:36;;;;;;;71.40;35.30;;;;;;;-5.12;100.00;99158.90;52497;1254;1068891;-76
2023/03/01 01:45:28;;;;;;;99.30;49.60;;;;;;;-5.05;100.00;99153.77;52435;1254;1016546;-76
2023/03/01 01:47:57;;;;;;;92.60;43.30;;;;;;;-5.00;100.00;99151.45;52435;1257;1064170;-78
2023/03/01 01:50:23;;;;;;;;;;;;;;;-4.93;100.00;99149.69;52520;1254;1016173;-77
2023/03/01 01:52:50;;;;;;;70.00;30.60;;;;;;;-4.87;100.00;99147.33;52430;1254;1016329;-78
2023/03/01 01:55:25;;;;;;;56.10;26.80;;;;;;;-4.81;100.00;99154.52;52329;1257;1054307;-77
2023/03/01 01:57:54;;;;;;;87.20;40.80;;;;;;;-4.78;100.00;99144.57;52463;1257;1052896;-78
2023/03/01 02:00:22;;;;;;;38.20;21.30;;;;;;;-4.76;100.00;99139.11;52426;1254;1016089;-77
2023/03/01 02:02:54;;;;;;;84.40;37.50;;;;;;;-4.76;100.00;99133.61;52439;1254;1019949;-77
2023/03/01 02:05:44;;;;;;;105.50;46.00;;;;;;;-4.80;100.00;99137.48;52506;1254;1051171;-78
2023/03/01 02:08:12;;;;;;;85.40;44.40;;;;;;;-4.87;100.00;99138.58;52492;1257;1042141;-77
2023/03/01 02:10:38;;;;;;;96.00;41.10;;;;;;;-4.92;100.00;99136.21;52389;1257;1016065;-77
2023/03/01 02:13:05;;;;;;;92.80;42.00;;;;;;;-4.99;100.00;99132.67;52424;1254;1058716;-77
2023/03/01 02:15:36;;;;;;;95.90;45.20;;;;;;;-5.02;100.00;99129.36;52468;1258;1016793;-77
2023/03/01 02:18:03;;;;;;;107.90;48.00;;;;;;;-5.05;100.00;99126.31;52451;1256;1073122;-77
2023/03/01 02:20:52;;;;;;;91.70;43.50;;;;;;;-5.06;100.00;99127.40;52475;1254;1016252;-78
2023/03/01 02:23:20;;;;;;;94.80;44.20;;;;;;;-5.14;100.00;99123.08;52629;1256;1060195;-77
2023/03/01 02:25:52;;;;;;;98.90;42.50;;;;;;;-5.19;100.00;99119.45;52485;1254;1016565;-77
2023/03/01 02:28:31;;;;;;;98.90;43.90;;;;;;;-5.19;100.00;99120.99;52369;1257;1071180;-77
2023/03/01 02:33:43;;;;;;;99.00;41.30;;;;;;;-5.20;100.00;99126.20;52401;1254;1063182;-77
2023/03/01 02:36:15;;;;;;;76.70;36.90;;;;;;;-5.18;100.00;99126.85;52438;1254;1016470;-78
2023/03/01 02:38:42;;;;;;;71.60;31.40;;;;;;;-5.15;100.00;99122.17;52510;1257;1051282;-78
2023/03/01 02:41:09;;;;;;;70.10;27.40;;;;;;;-5.12;100.00;99125.88;52337;1254;1016145;-77
2023/03/01 02:43:36;;;;;;;87.80;40.30;;;;;;;-5.08;100.00;99123.98;52535;1254;1060954;-78
2023/03/01 02:46:15;;;;;;;88.70;36.70;;;;;;;-5.09;100.00;99121.04;52398;1254;1016166;-77
2023/03/01 02:48:48;;;;;;;;;;;;;;;-5.12;100.00;99112.13;52556;1254;1072747;-78
2023/03/01 02:51:22;;;;;;;88.50;38.00;;;;;;;-5.14;100.00;99115.51;52443;1254;1072643;-77
2023/03/01 02:54:13;;;;;;;94.00;43.90;;;;;;;-5.19;100.00;99117.10;52396;1254;1072780;-77
2023/03/01 02:56:40;;;;;;;98.30;45.00;;;;;;;-5.20;100.00;99116.53;52448;1254;1075341;-77
2023/03/01 02:59:07;;;;;;;94.50;42.40;;;;;;;-5.23;100.00;99121.84;52423;1257;1016024;-77
2023/03/01 03:01:37;;;;;;;95.30;43.00;;;;;;;-5.28;100.00;99117.17;52453;1259;1071519;-77
2023/03/01 03:04:05;;;;;;;106.90;44.10;;;;;;;-5.33;100.00;99115.34;52550;1257;1016494;-78
2023/03/01 03:06:32;;;;;;;94.10;42.30;;;;;;;-5.40;100.00;99120.21;52491;1254;1016299;-78
2023/03/01 03:08:59;;;;;;;92.40;43.70;;;;;;;-5.45;100.00;99118.63;52398;1254;1071769;-77
2023/03/01 03:11:26;;;;;;;99.70;44.40;;;;;;;-5.44;100.00;99114.14;52471;1254;1016387;-78
2023/03/01 03:13:52;;;;;;;93.30;41.70;;;;;;;-5.45;100.00;99114.52;52402;1257;1051383;-77
2023/03/01 03:16:19;;;;;;;79.20;35.10;;;;;;;-5.48;100.00;99112.77;52467;1257;1015581;-77
2023/03/01 03:18:46;;;;;;;88.90;43.50;;;;;;;-5.52;100.00;99115.14;52488;1253;1058889;-77
2023/03/01 03:21:12;;;;;;;90.60;40.90;;;;;;;-5.59;100.00;99124.25;52466;1253;1016506;-77
2023/03/01 03:23:39;;;;;;;95.40;44.60;;;;;;;-5.68;100.00;99132.70;52517;1254;1072930;-77
2023/03/01 03:26:06;;;;;;;106.30;45.30;;;;;;;-5.68;100.00;99129.11;52496;1254;1015772;-77
2023/03/01 03:28:33;;;;;;;111.80;42.60;;;;;;;-5.69;100.00;99121.65;52417;1257;1069730;-77
2023/03/01 03:31:03;;;;;;;94.50;38.90;;;;;;;-5.75;100.00;99114.50;52430;1254;1018115;-77
2023/03/01 03:33:30;;;;;;;88.90;42.40;;;;;;;-5.81;100.00;99117.27;52448;1257;1069420;-77
2023/03/01 03:35:57;;;;;;;88.60;41.30;;;;;;;-5.89;100.00;99117.14;52438;1254;1016249;-77
2023/03/01 03:38:23;;;;;;;97.10;45.50;;;;;;;-5.88;100.00;99116.90;52452;1254;1053386;-77
2023/03/01 03:40:55;;;;;;;100.30;43.10;;;;;;;-5.85;100.00;99115.67;52412;1254;1016348;-77
2023/03/01 03:43:22;;;;;;;92.10;42.40;;;;;;;-5.85;100.00;99109.52;52412;1259;1060980;-77
2023/03/01 03:45:50;;;;;;;97.00;41.30;;;;;;;-5.86;100.00;99100.81;52437;1259;1019469;-78
2023/03/01 03:48:18;;;;;;;94.00;40.40;;;;;;;-5.88;100.00;99105.80;52425;1254;1075908;-77
2023/03/01 03:50:49;;;;;;;106.20;43.00;;;;;;;-5.94;100.00;99113.48;52441;1254;1016141;-79
2023/03/01 03:53:15;;;;;;;125.60;53.10;;;;;;;-5.96;100.00;99122.62;52405;1254;1069661;-77
2023/03/01 03:55:44;;;;;;;105.70;43.20;;;;;;;-5.94;100.00;99120.45;52445;1254;1016837;-79
2023/03/01 03:58:11;;;;;;;95.30;42.60;;;;;;;-5.97;100.00;99121.67;52472;1257;1069560;-78
2023/03/01 04:00:39;;;;;;;88.70;40.50;;;;;;;-6.04;100.00;99121.58;52415;1259;1016406;-78
2023/03/01 04:03:07;;;;;;;90.00;40.30;;;;;;;-6.06;100.00;99122.67;52460;1254;1050819;-79
2023/03/01 04:05:33;;;;;;;89.60;41.30;;;;;;;-6.06;100.00;99123.02;52430;1257;1015958;-78
2023/03/01 04:08:03;;;;;;;83.60;39.10;;;;;;;-6.05;100.00;99115.16;52451;1254;1059593;-78
2023/03/01 04:10:33;;;;;;;91.60;42.10;;;;;;;-6.06;100.00;99113.89;52435;1254;1015715;-78
2023/03/01 04:13:00;;;;;;;93.30;42.90;;;;;;;-6.06;100.00;99112.86;52441;1260;1016148;-78
2023/03/01 04:15:26;;;;;;;80.80;37.00;;;;;;;-6.08;100.00;99110.91;52492;1254;1016369;-77
2023/03/01 04:17:54;;;;;;;92.90;42.00;;;;;;;-6.12;100.00;99113.75;52483;1257;1075281;-78
2023/03/01 04:20:26;;;;;;;90.30;43.40;;;;;;;-6.12;100.00;99113.64;52621;1254;1016917;-77
2023/03/01 04:23:22;;;;;;;101.80;41.60;;;;;;;-6.09;100.00;99115.03;52565;1253;1069526;-78
2023/03/01 04:25:54;;;;;;;96.40;41.30;;;;;;;-6.10;100.00;99113.04;52424;1254;1061107;-78
2023/03/01 04:28:23;;;;;;;92.10;39.80;;;;;;;-6.11;100.00;99112.41;52405;1254;1069068;-78
2023/03/01 04:30:51;;;;;;;;;;;;;;;-6.10;100.00;99108.59;52524;1254;1016484;-76
2023/03/01 04:33:18;;;;;;;74.80;33.80;;;;;;;-6.08;100.00;99102.27;52392;1254;1016128;-77
2023/03/01 04:35:45;;;;;;;78.30;33.70;;;;;;;-6.04;100.00;99102.13;52455;1259;1070675;-77
2023/03/01 04:38:11;;;;;;;93.90;39.60;;;;;;;-6.01;100.00;99106.19;52417;1257;1015773;-77
2023/03/01 04:40:38;;;;;;;85.50;36.80;;;;;;;-5.99;100.00;99111.62;52508;1257;1050545;-77
2023/03/01 04:43:05;;;;;;;84.70;38.10;;;;;;;-5.96;100.00;99120.48;52434;1254;1016152;-77
2023/03/01 04:45:32;;;;;;;93.90;41.20;;;;;;;-5.99;100.00;99129.89;52426;1254;1058760;-76
2023/03/01 04:47:59;;;;;;;89.00;38.40;;;;;;;-5.98;100.00;99130.04;52478;1254;1016029;-77
2023/03/01 04:50:25;;;;;;;99.10;45.80;;;;;;;-5.99;100.00;99136.95;52381;1254;1075736;-78
2023/03/01 04:52:52;;;;;;;87.50;39.50;;;;;;;-5.99;100.00;99135.84;52502;1257;1016081;-77
2023/03/01 04:55:19;;;;;;;83.10;37.90;;;;;;;-5.99;100.00;99136.92;52470;1255;1070548;-77
2023/03/01 04:57:45;;;;;;;98.80;45.80;;;;;;;-5.99;100.00;99134.84;52448;1257;1016285;-78
2023/03/01 05:00:19;;;;;;;93.20;42.60;;;;;;;-5.98;100.00;99135.07;52488;1256;1070618;-77
2023/03/01 05:02:48;;;;;;;105.20;47.30;;;;;;;-5.96;100.00;99120.88;52446;1258;1070995;-77
2023/03/01 05:05:15;;;;;;;94.20;44.30;;;;;;;-5.99;100.00;99122.81;52476;1257;1015955;-77
2023/03/01 05:07:41;;;;;;;101.00;45.50;;;;;;;-6.04;100.00;99120.87;52387;1258;1016152;-77
2023/03/01 05:10:09;;;;;;;93.50;45.90;;;;;;;-6.07;100.00;99125.55;52488;1254;1051164;-77
2023/03/01 05:12:37;;;;;;;94.30;38.10;;;;;;;-6.05;100.00;99127.50;52417;1256;1017836;-77
2023/03/01 05:15:06;;;;;;;83.30;36.40;;;;;;;-6.11;100.00;99117.74;52467;1254;1060677;-77
2023/03/01 05:17:34;;;;;;;91.90;41.20;;;;;;;-6.14;100.00;99118.57;52429;1254;1016417;-77
2023/03/01 05:20:01;;;;;;;84.60;38.20;;;;;;;-6.19;100.00;99117.79;52491;1256;1016341;-76
2023/03/01 05:22:27;;;;;;;82.50;38.70;;;;;;;-6.17;100.00;99113.71;52444;1254;1072569;-77
2023/03/01 05:24:54;;;;;;;96.30;41.20;;;;;;;-6.15;100.00;99109.87;52464;1256;1018492;-77
2023/03/01 05:27:22;;;;;;;104.30;45.50;;;;;;;-6.11;100.00;99106.61;52396;1257;1069310;-76
2023/03/01 05:29:48;;;;;;;97.40;45.50;;;;;;;-6.05;100.00;99105.98;52493;1254;1016417;-77
2023/03/01 05:32:16;;;;;;;88.40;41.00;;;;;;;-6.04;100.00;99105.92;52430;1257;1073464;-77
2023/03/01 05:34:42;;;;;;;114.20;48.20;;;;;;;-6.09;100.00;99115.76;52478;1254;1016450;-77
2023/03/01 05:37:09;;;;;;;96.50;44.20;;;;;;;-6.06;100.00;99118.45;52441;1259;1050654;-77
2023/03/01 05:39:36;;;;;;;90.90;42.70;;;;;;;-6.07;100.00;99112.02;52475;1257;1016667;-77
2023/03/01 05:42:02;;;;;;;61.30;28.50;;;;;;;-6.00;100.00;99104.29;52427;1254;1059057;-77
2023/03/01 05:44:29;;;;;;;97.70;46.20;;;;;;;-5.90;100.00;99104.44;52426;1254;1016361;-77
2023/03/01 05:46:56;;;;;;;94.50;46.20;;;;;;;-5.85;100.00;99113.36;52471;1254;1072853;-77
2023/03/01 05:49:23;;;;;;;94.10;40.40;;;;;;;-5.83;100.00;99117.13;52451;1254;1016449;-77
2023/03/01 05:51:51;;;;;;;75.90;37.70;;;;;;;-5.84;100.00;99116.14;52466;1254;1069594;-77
2023/03/01 05:54:19;;;;;;;94.60;41.00;;;;;;;-5.81;100.00;99120.05;52539;1254;1016266;-77
2023/03/01 05:56:46;;;;;;;75.50;35.10;;;;;;;-5.80;100.00;99115.34;52492;1259;1070149;-77
2023/03/01 05:59:14;;;;;;;101.00;41.40;;;;;;;-5.76;100.00;99113.59;52472;1254;1016182;-77
2023/03/01 06:01:42;;;;;;;108.80;46.10;;;;;;;-5.74;100.00;99111.80;52445;1259;1050795;-77
2023/03/01 06:04:08;;;;;;;89.10;40.60;;;;;;;-5.66;100.00;99107.64;52451;1254;1016012;-77
2023/03/01 06:06:37;;;;;;;82.70;34.20;;;;;;;-5.66;100.00;99103.61;52492;1254;1061558;-76
2023/03/01 06:09:07;;;;;;;76.10;34.20;;;;;;;-5.61;100.00;99100.00;52504;1257;1016572;-77
2023/03/01 06:11:34;;;;;;;96.60;42.50;;;;;;;-5.54;100.00;99095.94;52790;1257;1016437;-77
2023/03/01 06:14:01;;;;;;;94.60;43.80;;;;;;;-5.46;100.00;99087.92;52578;1254;1015704;-77
2023/03/01 06:16:28;;;;;;;72.70;32.20;;;;;;;-5.41;100.00;99086.15;52625;1254;1072989;-76
2023/03/01 06:18:54;;;;;;;92.70;42.30;;;;;;;-5.35;100.00;99090.83;52571;1254;1017607;-77
2023/03/01 06:21:21;;;;;;;54.40;27.60;;;;;;;-5.31;100.00;99091.38;52609;1254;1072387;-77
2023/03/01 06:23:48;;;;;;;96.50;46.90;;;;;;;-5.32;100.00;99083.65;52539;1254;1016487;-77
2023/03/01 06:26:14;;;;;;;83.10;36.80;;;;;;;-5.29;100.00;99088.20;52464;1258;1071127;-76
2023/03/01 06:28:41;;;;;;;112.60;51.60;;;;;;;-5.22;100.00;99093.98;52625;1257;1016371;-77
2023/03/01 06:31:09;;;;;;;107.90;47.30;;;;;;;-5.15;100.00;99094.98;52695;1256;1053188;-77
2023/03/01 06:33:35;;;;;;;117.70;53.50;;;;;;;-5.10;100.00;99095.27;52719;1258;1015820;-76
2023/03/01 06:36:03;;;;;;;103.70;49.60;;;;;;;-5.06;100.00;99101.33;52611;1254;1059420;-77
2023/03/01 06:38:29;;;;;;;101.80;46.20;;;;;;;-4.96;100.00;99109.52;52696;1254;1016242;-77
2023/03/01 06:40:56;;;;;;;110.90;51.80;;;;;;;-4.90;100.00;99113.25;52704;1270;1072937;-77
2023/03/01 06:43:23;;;;;;;104.80;48.40;;;;;;;-4.80;100.00;99105.73;52686;1254;1016231;-77
2023/03/01 06:45:50;;;;;;;93.70;48.50;;;;;;;-4.69;100.00;99113.15;52543;1254;1070279;-77
2023/03/01 06:48:17;;;;;;;96.30;44.10;;;;;;;-4.69;100.00;99121.59;52611;1254;1016369;-76
2023/03/01 06:50:43;;;;;;;105.00;46.90;;;;;;;-4.62;100.00;99119.80;52541;1257;1070608;-77
2023/03/01 06:53:10;;;;;;;101.90;51.00;;;;;;;-4.45;100.00;99121.59;52454;1254;1017104;-77
2023/03/01 06:55:37;;;;;;;102.20;47.10;;;;;;;-4.18;100.00;99121.66;52563;1258;1050585;-76
2023/03/01 06:58:03;;;;;;;104.20;50.90;;;;;;;-4.06;100.00;99124.61;52617;1257;1018876;-76
2023/03/01 07:00:30;;;;;;;90.60;43.40;;;;;;;-3.93;100.00;99121.89;52558;1257;1058742;-76
2023/03/01 07:03:01;;;;;;;79.50;40.80;;;;;;;-3.85;100.00;99125.21;52585;1259;1018582;-77
2023/03/01 07:05:29;;;;;;;116.60;50.90;;;;;;;-3.81;100.00;99120.58;52704;1254;1074984;-77
2023/03/01 07:07:56;;;;;;;111.30;48.70;;;;;;;-3.66;100.00;99119.13;53098;1254;1015922;-77
2023/03/01 07:10:23;;;;;;;111.80;51.80;;;;;;;-3.43;100.00;99115.48;52642;1254;1068794;-77
2023/03/01 07:12:49;;;;;;;98.00;45.10;;;;;;;-3.42;100.00;99110.55;52496;1254;1016381;-77
2023/03/01 07:15:16;;;;;;;94.20;46.00;;;;;;;-3.36;100.00;99108.20;52457;1260;1070488;-77
2023/03/01 07:17:44;;;;;;;78.10;38.40;;;;;;;-3.31;100.00;99104.47;52582;1259;1016281;-77
2023/03/01 07:20:11;;;;;;;95.20;47.50;;;;;;;-3.16;100.00;99106.16;52694;1259;1051187;-78
2023/03/01 07:22:41;;;;;;;99.70;47.80;;;;;;;-3.14;100.00;99106.84;52566;1254;1016393;-77
2023/03/01 07:25:08;;;;;;;96.70;48.70;;;;;;;-3.00;100.00;99105.89;52472;1254;1060647;-77
2023/03/01 07:27:35;;;;;;;118.80;54.60;;;;;;;-2.82;100.00;99103.00;52541;1258;1018842;-77
2023/03/01 07:30:02;;;;;;;102.70;53.40;;;;;;;-2.73;100.00;99098.50;52614;1254;1073205;-78
2023/03/01 07:32:28;;;;;;;99.10;53.00;;;;;;;-2.25;100.00;99092.55;52604;1259;1016485;-77
2023/03/01 07:34:55;;;;;;;94.10;50.70;;;;;;;-1.09;100.00;99092.59;52589;1259;1071663;-78
2023/03/01 07:37:22;;;;;;;98.50;52.80;;;;;;;-0.14;100.00;99092.31;52570;1257;1015874;-77
2023/03/01 07:39:48;;;;;;;89.60;44.10;;;;;;;0.70;100.00;99087.50;52738;1254;1074330;-77
2023/03/01 07:42:15;;;;;;;79.60;45.50;;;;;;;1.64;100.00;99091.98;52636;1257;1015919;-78
2023/03/01 07:44:41;;;;;;;100.00;52.70;;;;;;;2.21;100.00;99089.77;52562;1254;1053396;-78
2023/03/01 07:47:08;;;;;;;172.40;97.80;;;;;;;2.83;99.60;99084.43;52699;1254;1015810;-78
2023/03/01 07:49:35;;;;;;;97.30;60.90;;;;;;;3.45;98.32;99083.08;52706;1254;1058694;-78
2023/03/01 07:52:01;;;;;;;93.10;60.40;;;;;;;3.93;96.51;99076.77;53576;1254;1015527;-78
2023/03/01 07:54:28;;;;;;;108.60;66.20;;;;;;;4.45;94.55;99072.58;54025;1254;1072754;-75
2023/03/01 07:56:56;;;;;;;76.50;47.70;;;;;;;4.94;90.95;99067.44;53996;1254;1016066;-76
2023/03/01 07:59:28;;;;;;;62.30;40.60;;;;;;;5.76;91.80;99063.90;53996;1254;1070175;-76
2023/03/01 08:01:56;;;;;;;58.60;38.00;;;;;;;5.93;89.70;99061.63;53973;1254;1069739;-76
2023/03/01 08:04:24;;;;;;;73.50;44.40;;;;;;;5.27;88.26;99060.02;53912;1254;1015501;-76
2023/03/01 08:06:51;;;;;;;68.10;39.50;;;;;;;4.33;86.91;99055.52;53874;1258;1072216;-76
2023/03/01 08:09:18;;;;;;;95.90;51.50;;;;;;;3.57;87.68;99046.54;52812;1258;1016010;-75
2023/03/01 08:11:45;;;;;;;71.30;42.00;;;;;;;2.90;86.83;99039.85;52713;1258;1051079;-78
2023/03/01 08:14:11;;;;;;;230.40;126.40;;;;;;;2.16;85.60;99043.11;52542;1254;1016170;-78
2023/03/01 08:16:38;;;;;;;298.70;153.20;;;;;;;1.63;86.67;99044.48;52499;1254;1058979;-77
2023/03/01 08:19:06;;;;;;;280.90;134.90;;;;;;;1.37;86.60;99037.59;52564;1254;1016192;-77
2023/03/01 08:21:34;;;;;;;210.90;98.00;;;;;;;1.03;85.78;99037.27;52903;1254;1073131;-78
2023/03/01 08:24:02;;;;;;;103.40;55.40;;;;;;;0.70;86.50;99032.64;52520;1259;1016278;-77
2023/03/01 08:26:29;;;;;;;151.90;66.70;;;;;;;0.52;87.40;99029.84;52648;1259;1070440;-77
2023/03/01 08:28:56;;;;;;;145.00;68.10;;;;;;;0.54;88.40;99026.00;52602;1254;1016206;-77
2023/03/01 08:31:31;;;;;;;104.00;53.90;;;;;;;1.26;88.97;99029.19;52654;1254;1070566;-78
2023/03/01 08:33:59;;;;;;;96.30;52.80;;;;;;;2.78;88.26;99025.82;52659;1254;1073258;-78
2023/03/01 08:36:37;;;;;;;79.90;45.10;;;;;;;4.50;85.04;99023.05;52701;1254;1016138;-78
2023/03/01 08:39:04;;;;;;;72.40;44.90;;;;;;;6.37;83.18;99020.83;53962;1254;1070358;-76
2023/03/01 08:41:31;;;;;;;115.60;74.70;;;;;;;7.33;79.85;99023.65;53106;1254;1016120;-76
2023/03/01 08:44:00;;;;;;;172.00;87.70;;;;;;;8.75;79.99;99023.09;52536;1256;1052828;-76
2023/03/01 08:46:28;;;;;;;80.50;45.80;;;;;;;9.88;79.06;99027.84;52518;1254;1016015;-76
2023/03/01 08:48:54;;;;;;;72.00;41.90;;;;;;;10.62;71.95;99016.35;52681;1254;1016389;-77
2023/03/01 08:51:21;;;;;;;54.50;33.40;;;;;;;10.77;64.93;99014.17;52561;1254;1058354;-77
2023/03/01 08:53:48;;;;;;;52.40;33.20;;;;;;;11.13;63.63;99010.79;52534;1254;1015679;-76
2023/03/01 08:56:15;;;;;;;39.20;28.20;;;;;;;11.40;64.63;99013.61;52761;1257;1073854;-76
2023/03/01 08:58:48;;;;;;;41.20;28.60;;;;;;;12.10;64.70;99012.75;52533;1259;1016000;-76
2023/03/01 09:01:17;;;;;;;43.80;29.80;;;;;;;13.51;61.57;99015.60;52605;1254;1069618;-77
2023/03/01 09:03:43;;;;;;;38.30;28.30;;;;;;;13.69;60.31;99016.48;52569;1254;1016123;-76
2023/03/01 09:06:10;;;;;;;46.50;29.60;;;;;;;12.20;62.29;99016.69;52522;1254;1016278;-76
2023/03/01 09:08:38;;;;;;;45.80;31.80;;;;;;;10.96;61.73;99008.95;52445;1260;1070273;-76
2023/03/01 09:11:05;;;;;;;51.20;32.30;;;;;;;9.89;63.49;99012.77;52636;1256;1018925;-76
2023/03/01 09:13:32;;;;;;;48.70;31.10;;;;;;;8.55;58.24;99010.55;52538;1254;1053740;-75
2023/03/01 09:16:00;;;;;;;42.50;28.40;;;;;;;7.42;59.03;99008.36;52476;1254;1017068;-76
2023/03/01 09:18:27;;;;;;;41.60;26.70;;;;;;;6.74;62.97;99002.33;52641;1259;1061254;-75
2023/03/01 09:21:01;;;;;;;39.80;24.60;;;;;;;6.15;63.79;98998.73;52564;1257;1016529;-76
2023/03/01 09:23:27;;;;;;;40.10;25.60;;;;;;;5.39;61.63;98992.89;52516;1259;1072247;-78
2023/03/01 09:25:54;;;;;;;50.00;27.20;;;;;;;4.82;63.55;98989.30;52457;1254;1016255;-78
2023/03/01 09:28:23;;;;;;;45.90;27.30;;;;;;;4.50;65.10;98988.85;52444;1258;1069401;-78
2023/03/01 09:30:49;;;;;;;48.00;25.90;;;;;;;4.19;66.49;98984.71;52562;1260;1016176;-78
2023/03/01 09:33:16;;;;;;;45.30;24.70;;;;;;;4.05;66.59;98983.22;52516;1254;1015928;-77
2023/03/01 09:35:46;;;;;;;71.50;29.20;;;;;;;3.88;68.21;98985.44;52524;1257;1073188;-78
2023/03/01 09:38:13;;;;;;;43.70;24.20;;;;;;;3.84;68.84;98984.75;52414;1254;1016276;-78
2023/03/01 09:40:46;;;;;;;39.60;21.30;;;;;;;3.80;69.49;98985.27;52580;1254;1016625;-78
2023/03/01 09:43:41;;;;;;;41.80;21.40;;;;;;;3.54;69.21;98988.15;52555;1263;1052195;-78
2023/03/01 09:46:09;;;;;;;37.90;21.00;;;;;;;3.36;70.56;98984.54;52475;1258;1050911;-79
2023/03/01 09:48:41;;;;;;;36.40;20.30;;;;;;;3.28;69.95;98987.14;52520;1259;1016391;-79
2023/03/01 09:51:12;;;;;;;33.20;18.70;;;;;;;3.25;71.04;98985.06;52619;1258;1051009;-77
2023/03/01 09:53:39;;;;;;;36.60;21.00;;;;;;;3.16;70.95;98983.67;52477;1254;1050952;-79
2023/03/01 09:56:26;;;;;;;41.50;21.00;;;;;;;3.05;72.19;98987.35;52492;1259;1016370;-79
2023/03/01 09:59:11;;;;;;;36.20;20.40;;;;;;;3.15;73.00;98987.71;52551;1254;1059403;-77
2023/03/01 10:02:03;;;;;;;39.80;21.50;;;;;;;3.12;73.33;98985.49;52461;1254;1058683;-77
2023/03/01 10:04:49;;;;;;;37.50;20.60;;;;;;;3.17;73.66;98981.73;52484;1259;1060750;-77
2023/03/01 10:07:41;;;;;;;40.90;21.90;;;;;;;3.21;74.08;98980.77;52465;1254;1061241;-77
2023/03/01 10:10:10;;;;;;;42.90;22.70;;;;;;;3.13;74.92;98978.77;52823;1259;1058363;-77
2023/03/01 10:12:39;;;;;;;48.40;23.90;;;;;;;3.15;75.35;98977.27;52552;1258;1016090;-79
2023/03/01 10:15:10;;;;;;;43.00;23.00;;;;;;;3.18;75.28;98979.71;52498;1254;1015736;-78
2023/03/01 10:17:55;;;;;;;75.10;39.70;;;;;;;3.13;74.39;98976.54;52506;1259;1060403;-78
2023/03/01 10:20:25;;;;;;;55.10;27.90;;;;;;;3.10;74.54;98971.96;52438;1254;1058217;-77
2023/03/01 10:22:54;;;;;;;45.70;23.40;;;;;;;3.11;74.30;98975.15;52586;1256;1059381;-79
2023/03/01 10:25:43;;;;;;;51.80;27.20;;;;;;;3.18;74.11;98973.70;52443;1254;1016217;-78
2023/03/01 10:28:31;;;;;;;49.50;26.30;;;;;;;3.21;73.59;98974.56;52474;1259;1060975;-77
2023/03/01 10:30:58;;;;;;;37.20;21.10;;;;;;;3.31;74.20;98970.46;52517;1254;1060305;-78
2023/03/01 10:33:32;;;;;;;36.50;21.90;;;;;;;3.41;74.08;98970.52;52539;1257;1018651;-77
2023/03/01 10:35:59;;;;;;;42.80;21.00;;;;;;;3.45;73.34;98963.70;52462;1259;1075066;-78
2023/03/01 10:38:26;;;;;;;38.10;21.50;;;;;;;3.51;73.74;98961.11;52437;1254;1016026;-78
2023/03/01 10:40:57;;;;;;;38.70;19.60;;;;;;;3.60;73.83;98957.46;52463;1259;1069262;-77
2023/03/01 10:43:31;;;;;;;35.00;19.00;;;;;;;3.73;73.10;98957.08;52483;1254;1016253;-78
2023/03/01 10:45:58;;;;;;;40.20;23.00;;;;;;;3.84;73.37;98951.13;52462;1259;1071754;-78
2023/03/01 10:48:26;;;;;;;39.70;21.10;;;;;;;3.89;73.57;98949.45;52452;1259;1015969;-77
2023/03/01 10:50:58;;;;;;;39.80;20.50;;;;;;;3.92;72.10;98947.18;52571;1258;1071788;-78
2023/03/01 10:57:10;;;;;;;27.10;15.60;;;;;;;3.89;70.94;98940.55;52605;1254;1071095;-77
2023/03/01 10:59:38;;;;;;;27.60;16.00;;;;;;;3.89;70.48;98939.89;52455;1258;1016443;-76
2023/03/01 11:02:17;;;;;;;31.50;14.50;;;;;;;3.91;70.90;98934.80;52454;1259;1016511;-76
2023/03/01 11:05:02;;;;;;;29.60;16.30;;;;;;;3.93;70.20;98930.20;52419;1258;1052344;-77
2023/03/01 11:07:29;;;;;;;32.10;17.30;;;;;;;3.98;70.30;98923.25;52427;1254;1053868;-78
2023/03/01 11:09:56;;;;;;;32.60;16.60;;;;;;;4.02;70.65;98922.54;52469;1260;1015916;-77
2023/03/01 11:12:22;;;;;;;34.00;18.40;;;;;;;4.03;69.38;98928.05;52445;1254;1057933;-77